sensor_id;sensor_type;location;lat;lon;timestamp;pressure;altitude;pressure_sealevel;temperature;humidity
20793;BME280;10556;-33.662;151.094;2022-12-18T00:01:16;99880.13;;;18.28;100.00
20793;BME280;10556;-33.662;151.094;2022-12-18T00:06:25;99885.56;;;18.36;100.00
20793;BME280;10556;-33.662;151.094;2022-12-18T00:11:30;99881.09;;;18.38;100.00
20793;BME280;10556;-33.662;151.094;2022-12-18T00:16:33;99883.59;;;18.51;100.00
20793;BME280;10556;-33.662;151.094;2022-12-18T00:21:37;99881.88;;;18.62;100.00
20793;BME280;10556;-33.662;151.094;2022-12-18T00:26:40;99875.44;;;18.68;100.00
20793;BME280;10556;-33.662;151.094;2022-12-18T00:31:42;99883.53;;;18.63;100.00
20793;BME280;10556;-33.662;151.094;2022-12-18T00:36:48;99897.66;;;18.47;100.00
20793;BME280;10556;-33.662;151.094;2022-12-18T00:41:50;99909.16;;;18.19;100.00
20793;BME280;10556;-33.662;151.094;2022-12-18T00:46:53;99917.16;;;17.92;100.00
20793;BME280;10556;-33.662;151.094;2022-12-18T00:51:57;99919.75;;;17.79;100.00
20793;BME280;10556;-33.662;151.094;2022-12-18T00:57:00;99909.75;;;17.88;100.00
20793;BME280;10556;-33.662;151.094;2022-12-18T01:02:02;99906.75;;;18.05;100.00
20793;BME280;10556;-33.662;151.094;2022-12-18T01:07:07;99907.97;;;18.12;100.00
20793;BME280;10556;-33.662;151.094;2022-12-18T01:12:09;99901.09;;;18.23;100.00
20793;BME280;10556;-33.662;151.094;2022-12-18T01:17:12;99899.19;;;18.49;100.00
20793;BME280;10556;-33.662;151.094;2022-12-18T01:22:16;99881.22;;;18.83;100.00
20793;BME280;10556;-33.662;151.094;2022-12-18T01:27:19;99876.75;;;18.96;100.00
20793;BME280;10556;-33.662;151.094;2022-12-18T01:32:22;99884.19;;;18.89;100.00
20793;BME280;10556;-33.662;151.094;2022-12-18T01:37:26;99884.28;;;18.88;100.00
20793;BME280;10556;-33.662;151.094;2022-12-18T01:42:29;99879.81;;;18.90;100.00
20793;BME280;10556;-33.662;151.094;2022-12-18T01:47:35;99878.63;;;18.83;100.00
20793;BME280;10556;-33.662;151.094;2022-12-18T01:52:45;99879.22;;;18.75;100.00
20793;BME280;10556;-33.662;151.094;2022-12-18T01:57:51;99885.66;;;18.69;100.00
20793;BME280;10556;-33.662;151.094;2022-12-18T02:02:54;99885.66;;;18.69;100.00
20793;BME280;10556;-33.662;151.094;2022-12-18T02:08:06;99879.78;;;18.67;100.00
20793;BME280;10556;-33.662;151.094;2022-12-18T02:13:14;99882.00;;;18.61;100.00
20793;BME280;10556;-33.662;151.094;2022-12-18T02:18:21;99882.78;;;18.50;100.00
20793;BME280;10556;-33.662;151.094;2022-12-18T02:23:41;99879.69;;;18.34;100.00
20793;BME280;10556;-33.662;151.094;2022-12-18T02:28:52;99879.91;;;18.31;100.00
20793;BME280;10556;-33.662;151.094;2022-12-18T02:33:58;99878.22;;;18.19;100.00
20793;BME280;10556;-33.662;151.094;2022-12-18T02:39:02;99878.78;;;18.11;100.00
20793;BME280;10556;-33.662;151.094;2022-12-18T02:44:11;99878.06;;;18.09;100.00
20793;BME280;10556;-33.662;151.094;2022-12-18T02:49:26;99871.97;;;18.10;100.00
20793;BME280;10556;-33.662;151.094;2022-12-18T02:54:40;99877.03;;;18.12;100.00
20793;BME280;10556;-33.662;151.094;2022-12-18T02:59:54;99876.56;;;18.18;100.00
20793;BME280;10556;-33.662;151.094;2022-12-18T03:05:03;99858.34;;;18.43;100.00
20793;BME280;10556;-33.662;151.094;2022-12-18T03:10:11;99850.94;;;18.73;100.00
20793;BME280;10556;-33.662;151.094;2022-12-18T03:15:22;99835.53;;;19.05;100.00
20793;BME280;10556;-33.662;151.094;2022-12-18T03:20:26;99832.81;;;19.29;100.00
20793;BME280;10556;-33.662;151.094;2022-12-18T03:25:32;99832.31;;;19.57;100.00
20793;BME280;10556;-33.662;151.094;2022-12-18T03:30:39;99830.81;;;19.87;100.00
20793;BME280;10556;-33.662;151.094;2022-12-18T03:35:43;99816.38;;;20.05;100.00
20793;BME280;10556;-33.662;151.094;2022-12-18T03:40:53;99814.44;;;20.18;100.00
20793;BME280;10556;-33.662;151.094;2022-12-18T03:46:05;99818.88;;;20.27;100.00
20793;BME280;10556;-33.662;151.094;2022-12-18T03:51:11;99807.66;;;20.38;100.00
20793;BME280;10556;-33.662;151.094;2022-12-18T03:56:17;99808.94;;;20.53;100.00
20793;BME280;10556;-33.662;151.094;2022-12-18T04:01:25;99800.06;;;20.76;100.00
20793;BME280;10556;-33.662;151.094;2022-12-18T04:06:30;99805.00;;;20.79;100.00
20793;BME280;10556;-33.662;151.094;2022-12-18T04:11:34;99805.25;;;20.76;100.00
20793;BME280;10556;-33.662;151.094;2022-12-18T04:16:38;99788.34;;;20.82;100.00
20793;BME280;10556;-33.662;151.094;2022-12-18T04:21:41;99784.16;;;20.91;100.00
20793;BME280;10556;-33.662;151.094;2022-12-18T04:26:43;99770.59;;;20.77;100.00
20793;BME280;10556;-33.662;151.094;2022-12-18T04:31:48;99760.50;;;20.74;100.00
20793;BME280;10556;-33.662;151.094;2022-12-18T04:36:50;99780.69;;;20.71;100.00
20793;BME280;10556;-33.662;151.094;2022-12-18T04:41:53;99769.03;;;20.86;100.00
20793;BME280;10556;-33.662;151.094;2022-12-18T04:46:57;99756.50;;;21.10;100.00
20793;BME280;10556;-33.662;151.094;2022-12-18T04:52:00;99764.09;;;21.33;99.80
20793;BME280;10556;-33.662;151.094;2022-12-18T04:57:02;99760.16;;;21.48;99.40
20793;BME280;10556;-33.662;151.094;2022-12-18T05:02:07;99762.47;;;21.51;92.21
20793;BME280;10556;-33.662;151.094;2022-12-18T05:07:09;99760.41;;;21.45;92.07
20793;BME280;10556;-33.662;151.094;2022-12-18T05:12:12;99754.56;;;21.43;94.12
20793;BME280;10556;-33.662;151.094;2022-12-18T05:17:17;99738.84;;;21.44;93.85
20793;BME280;10556;-33.662;151.094;2022-12-18T05:22:19;99739.41;;;21.38;95.61
20793;BME280;10556;-33.662;151.094;2022-12-18T05:27:22;99740.34;;;21.18;95.14
20793;BME280;10556;-33.662;151.094;2022-12-18T05:32:26;99726.38;;;21.00;95.91
20793;BME280;10556;-33.662;151.094;2022-12-18T05:37:29;99716.66;;;21.02;93.84
20793;BME280;10556;-33.662;151.094;2022-12-18T05:42:31;99721.19;;;21.00;90.54
20793;BME280;10556;-33.662;151.094;2022-12-18T05:47:36;99718.28;;;20.93;94.04
20793;BME280;10556;-33.662;151.094;2022-12-18T05:52:39;99704.41;;;20.94;94.86
20793;BME280;10556;-33.662;151.094;2022-12-18T05:57:41;99704.66;;;21.01;94.55
20793;BME280;10556;-33.662;151.094;2022-12-18T06:02:47;99702.88;;;21.01;93.14
20793;BME280;10556;-33.662;151.094;2022-12-18T06:07:49;99703.16;;;20.98;90.28
20793;BME280;10556;-33.662;151.094;2022-12-18T06:12:52;99704.53;;;21.02;87.88
20793;BME280;10556;-33.662;151.094;2022-12-18T06:17:57;99704.66;;;21.01;83.49
20793;BME280;10556;-33.662;151.094;2022-12-18T06:22:59;99700.44;;;21.00;85.05
20793;BME280;10556;-33.662;151.094;2022-12-18T06:28:02;99708.06;;;20.92;83.20
20793;BME280;10556;-33.662;151.094;2022-12-18T06:33:06;99712.41;;;20.81;84.20
20793;BME280;10556;-33.662;151.094;2022-12-18T06:38:09;99716.88;;;20.70;87.58
20793;BME280;10556;-33.662;151.094;2022-12-18T06:43:11;99716.56;;;20.63;88.20
20793;BME280;10556;-33.662;151.094;2022-12-18T06:48:16;99725.00;;;20.56;87.76
20793;BME280;10556;-33.662;151.094;2022-12-18T06:53:18;99736.41;;;20.43;90.54
20793;BME280;10556;-33.662;151.094;2022-12-18T06:58:21;99718.53;;;20.40;90.92
20793;BME280;10556;-33.662;151.094;2022-12-18T07:03:25;99733.75;;;20.34;88.10
20793;BME280;10556;-33.662;151.094;2022-12-18T07:08:29;99734.13;;;20.29;86.86
20793;BME280;10556;-33.662;151.094;2022-12-18T07:13:32;99745.13;;;20.22;82.25
20793;BME280;10556;-33.662;151.094;2022-12-18T07:18:36;99753.22;;;20.08;84.10
20793;BME280;10556;-33.662;151.094;2022-12-18T07:23:39;99752.22;;;19.99;85.70
20793;BME280;10556;-33.662;151.094;2022-12-18T07:28:42;99755.41;;;19.91;89.21
20793;BME280;10556;-33.662;151.094;2022-12-18T07:33:47;99759.25;;;19.76;87.59
20793;BME280;10556;-33.662;151.094;2022-12-18T07:38:50;99752.75;;;19.61;90.44
20793;BME280;10556;-33.662;151.094;2022-12-18T07:43:52;99757.03;;;19.51;92.95
20793;BME280;10556;-33.662;151.094;2022-12-18T07:48:57;99774.84;;;19.43;93.82
20793;BME280;10556;-33.662;151.094;2022-12-18T07:53:59;99773.72;;;19.36;94.63
20793;BME280;10556;-33.662;151.094;2022-12-18T07:59:02;99791.00;;;19.24;98.26
20793;BME280;10556;-33.662;151.094;2022-12-18T08:04:06;99799.63;;;19.13;100.00
20793;BME280;10556;-33.662;151.094;2022-12-18T08:09:10;99812.28;;;19.05;100.00
20793;BME280;10556;-33.662;151.094;2022-12-18T08:14:13;99820.88;;;18.95;100.00
20793;BME280;10556;-33.662;151.094;2022-12-18T08:19:17;99823.34;;;18.85;100.00
20793;BME280;10556;-33.662;151.094;2022-12-18T08:24:20;99815.59;;;18.74;100.00
20793;BME280;10556;-33.662;151.094;2022-12-18T08:29:22;99825.09;;;18.62;100.00
20793;BME280;10556;-33.662;151.094;2022-12-18T08:34:27;99841.28;;;18.53;100.00
20793;BME280;10556;-33.662;151.094;2022-12-18T08:39:29;99851.91;;;18.49;100.00
20793;BME280;10556;-33.662;151.094;2022-12-18T08:44:32;99855.28;;;18.38;100.00
20793;BME280;10556;-33.662;151.094;2022-12-18T08:49:37;99865.34;;;18.30;100.00
20793;BME280;10556;-33.662;151.094;2022-12-18T08:54:39;99875.44;;;18.22;100.00
20793;BME280;10556;-33.662;151.094;2022-12-18T08:59:42;99879.47;;;18.13;100.00
20793;BME280;10556;-33.662;151.094;2022-12-18T09:04:47;99881.09;;;18.03;100.00
20793;BME280;10556;-33.662;151.094;2022-12-18T09:09:50;99876.47;;;17.96;100.00
20793;BME280;10556;-33.662;151.094;2022-12-18T09:14:52;99887.47;;;17.86;100.00
20793;BME280;10556;-33.662;151.094;2022-12-18T09:19:56;99901.84;;;17.78;100.00
20793;BME280;10556;-33.662;151.094;2022-12-18T09:24:59;99916.19;;;17.69;100.00
20793;BME280;10556;-33.662;151.094;2022-12-18T09:30:02;99917.44;;;17.64;100.00
20793;BME280;10556;-33.662;151.094;2022-12-18T09:35:07;99912.50;;;17.61;100.00
20793;BME280;10556;-33.662;151.094;2022-12-18T09:40:14;99909.50;;;17.54;100.00
20793;BME280;10556;-33.662;151.094;2022-12-18T09:45:17;99909.19;;;17.46;100.00
20793;BME280;10556;-33.662;151.094;2022-12-18T09:50:27;99923.53;;;17.37;100.00
20793;BME280;10556;-33.662;151.094;2022-12-18T09:55:34;99922.63;;;17.26;100.00
20793;BME280;10556;-33.662;151.094;2022-12-18T10:00:38;99920.56;;;17.18;100.00
20793;BME280;10556;-33.662;151.094;2022-12-18T10:05:49;99926.25;;;17.11;100.00
20793;BME280;10556;-33.662;151.094;2022-12-18T10:10:59;99935.13;;;17.07;100.00
20793;BME280;10556;-33.662;151.094;2022-12-18T10:16:09;99936.22;;;17.02;100.00
20793;BME280;10556;-33.662;151.094;2022-12-18T10:21:19;99940.97;;;16.96;100.00
20793;BME280;10556;-33.662;151.094;2022-12-18T10:26:24;99937.16;;;16.89;100.00
20793;BME280;10556;-33.662;151.094;2022-12-18T10:31:26;99944.25;;;16.85;100.00
20793;BME280;10556;-33.662;151.094;2022-12-18T10:36:31;99935.94;;;16.82;100.00
20793;BME280;10556;-33.662;151.094;2022-12-18T10:41:33;99938.81;;;16.77;100.00
20793;BME280;10556;-33.662;151.094;2022-12-18T10:46:36;99924.50;;;16.73;100.00
20793;BME280;10556;-33.662;151.094;2022-12-18T10:51:41;99929.81;;;16.70;100.00
20793;BME280;10556;-33.662;151.094;2022-12-18T10:56:44;99922.31;;;16.67;100.00
20793;BME280;10556;-33.662;151.094;2022-12-18T11:01:49;99923.97;;;16.68;100.00
20793;BME280;10556;-33.662;151.094;2022-12-18T11:06:59;99921.41;;;16.68;100.00
20793;BME280;10556;-33.662;151.094;2022-12-18T11:12:03;99923.22;;;16.66;100.00
20793;BME280;10556;-33.662;151.094;2022-12-18T11:17:16;99922.31;;;16.67;100.00
20793;BME280;10556;-33.662;151.094;2022-12-18T11:22:24;99919.66;;;16.69;100.00
20793;BME280;10556;-33.662;151.094;2022-12-18T11:27:27;99917.38;;;16.64;100.00
20793;BME280;10556;-33.662;151.094;2022-12-18T11:32:36;99915.19;;;16.58;100.00
20793;BME280;10556;-33.662;151.094;2022-12-18T11:37:43;99905.19;;;16.53;100.00
20793;BME280;10556;-33.662;151.094;2022-12-18T11:42:52;99921.00;;;16.47;100.00
20793;BME280;10556;-33.662;151.094;2022-12-18T11:48:01;99923.88;;;16.43;100.00
20793;BME280;10556;-33.662;151.094;2022-12-18T11:53:11;99915.44;;;16.41;100.00
20793;BME280;10556;-33.662;151.094;2022-12-18T11:58:21;99929.41;;;16.37;100.00
20793;BME280;10556;-33.662;151.094;2022-12-18T12:03:47;99929.81;;;16.31;100.00
20793;BME280;10556;-33.662;151.094;2022-12-18T12:09:03;99915.78;;;16.22;100.00
20793;BME280;10556;-33.662;151.094;2022-12-18T12:14:20;99914.34;;;16.18;100.00
20793;BME280;10556;-33.662;151.094;2022-12-18T12:19:34;99913.53;;;16.18;100.00
20793;BME280;10556;-33.662;151.094;2022-12-18T12:24:51;99912.91;;;16.14;100.00
20793;BME280;10556;-33.662;151.094;2022-12-18T12:30:03;99913.09;;;16.11;100.00
20793;BME280;10556;-33.662;151.094;2022-12-18T12:35:14;99911.63;;;16.07;100.00
20793;BME280;10556;-33.662;151.094;2022-12-18T12:40:26;99921.13;;;16.06;100.00
20793;BME280;10556;-33.662;151.094;2022-12-18T12:45:33;99919.34;;;16.07;100.00
20793;BME280;10556;-33.662;151.094;2022-12-18T12:50:39;99919.53;;;16.04;100.00
20793;BME280;10556;-33.662;151.094;2022-12-18T12:55:44;99911.28;;;15.99;100.00
20793;BME280;10556;-33.662;151.094;2022-12-18T13:00:57;99900.31;;;15.97;100.00
20793;BME280;10556;-33.662;151.094;2022-12-18T13:06:08;99905.00;;;15.90;100.00
20793;BME280;10556;-33.662;151.094;2022-12-18T13:11:34;99905.28;;;15.86;100.00
20793;BME280;10556;-33.662;151.094;2022-12-18T13:16:37;99892.59;;;15.83;100.00
20793;BME280;10556;-33.662;151.094;2022-12-18T13:21:39;99890.03;;;15.83;100.00
20793;BME280;10556;-33.662;151.094;2022-12-18T13:26:44;99885.94;;;15.80;100.00
20793;BME280;10556;-33.662;151.094;2022-12-18T13:32:00;99879.03;;;15.81;100.00
20793;BME280;10556;-33.662;151.094;2022-12-18T13:42:42;99876.28;;;15.84;100.00
20793;BME280;10556;-33.662;151.094;2022-12-18T13:47:45;99868.69;;;15.82;100.00
20793;BME280;10556;-33.662;151.094;2022-12-18T13:52:47;99874.63;;;15.83;100.00
20793;BME280;10556;-33.662;151.094;2022-12-18T13:58:03;99860.84;;;15.84;100.00
20793;BME280;10556;-33.662;151.094;2022-12-18T14:03:19;99853.06;;;15.85;100.00
20793;BME280;10556;-33.662;151.094;2022-12-18T14:08:22;99852.00;;;15.88;100.00
20793;BME280;10556;-33.662;151.094;2022-12-18T14:13:29;99846.88;;;15.88;100.00
20793;BME280;10556;-33.662;151.094;2022-12-18T14:18:38;99841.84;;;15.86;100.00
20793;BME280;10556;-33.662;151.094;2022-12-18T14:23:41;99837.84;;;15.82;100.00
20793;BME280;10556;-33.662;151.094;2022-12-18T14:28:47;99836.28;;;15.80;100.00
20793;BME280;10556;-33.662;151.094;2022-12-18T14:33:50;99841.41;;;15.80;100.00
20793;BME280;10556;-33.662;151.094;2022-12-18T14:38:54;99839.88;;;15.77;100.00
20793;BME280;10556;-33.662;151.094;2022-12-18T14:44:10;99834.81;;;15.76;100.00
20793;BME280;10556;-33.662;151.094;2022-12-18T14:49:21;99831.50;;;15.74;100.00
20793;BME280;10556;-33.662;151.094;2022-12-18T14:54:26;99835.09;;;15.71;100.00
20793;BME280;10556;-33.662;151.094;2022-12-18T14:59:32;99836.78;;;15.72;100.00
20793;BME280;10556;-33.662;151.094;2022-12-18T15:04:36;99827.59;;;15.68;100.00
20793;BME280;10556;-33.662;151.094;2022-12-18T15:09:40;99819.44;;;15.61;100.00
20793;BME280;10556;-33.662;151.094;2022-12-18T15:14:46;99819.13;;;15.53;100.00
20793;BME280;10556;-33.662;151.094;2022-12-18T15:19:49;99810.00;;;15.48;100.00
20793;BME280;10556;-33.662;151.094;2022-12-18T15:24:54;99807.53;;;15.46;100.00
20793;BME280;10556;-33.662;151.094;2022-12-18T15:30:21;99800.66;;;15.47;100.00
20793;BME280;10556;-33.662;151.094;2022-12-18T15:35:24;99795.31;;;15.50;100.00
20793;BME280;10556;-33.662;151.094;2022-12-18T15:40:27;99794.69;;;15.46;100.00
20793;BME280;10556;-33.662;151.094;2022-12-18T15:45:31;99789.75;;;15.43;100.00
20793;BME280;10556;-33.662;151.094;2022-12-18T15:50:34;99788.19;;;15.41;100.00
20793;BME280;10556;-33.662;151.094;2022-12-18T15:55:38;99788.19;;;15.41;100.00
20793;BME280;10556;-33.662;151.094;2022-12-18T16:00:43;99785.44;;;15.44;100.00
20793;BME280;10556;-33.662;151.094;2022-12-18T16:05:45;99787.91;;;15.45;100.00
20793;BME280;10556;-33.662;151.094;2022-12-18T16:10:48;99791.22;;;15.47;100.00
20793;BME280;10556;-33.662;151.094;2022-12-18T16:15:53;99788.00;;;15.44;100.00
20793;BME280;10556;-33.662;151.094;2022-12-18T16:20:55;99792.22;;;15.45;100.00
20793;BME280;10556;-33.662;151.094;2022-12-18T16:25:58;99801.78;;;15.43;100.00
20793;BME280;10556;-33.662;151.094;2022-12-18T16:31:02;99807.63;;;15.45;100.00
20793;BME280;10556;-33.662;151.094;2022-12-18T16:36:05;99795.72;;;15.44;100.00
20793;BME280;10556;-33.662;151.094;2022-12-18T16:41:17;99796.00;;;15.39;100.00
20793;BME280;10556;-33.662;151.094;2022-12-18T16:46:22;99795.91;;;15.41;100.00
20793;BME280;10556;-33.662;151.094;2022-12-18T16:51:34;99786.38;;;15.43;100.00
20793;BME280;10556;-33.662;151.094;2022-12-18T16:56:37;99792.31;;;15.43;100.00
20793;BME280;10556;-33.662;151.094;2022-12-18T17:01:42;99795.91;;;15.41;100.00
20793;BME280;10556;-33.662;151.094;2022-12-18T17:06:45;99806.16;;;15.41;100.00
20793;BME280;10556;-33.662;151.094;2022-12-18T17:11:48;99798.66;;;15.38;100.00
20793;BME280;10556;-33.662;151.094;2022-12-18T17:16:52;99802.16;;;15.37;100.00
20793;BME280;10556;-33.662;151.094;2022-12-18T17:21:56;99804.00;;;15.35;100.00
20793;BME280;10556;-33.662;151.094;2022-12-18T17:26:58;99811.72;;;15.35;100.00
20793;BME280;10556;-33.662;151.094;2022-12-18T17:32:03;99806.66;;;15.33;100.00
20793;BME280;10556;-33.662;151.094;2022-12-18T17:37:05;99816.94;;;15.33;100.00
20793;BME280;10556;-33.662;151.094;2022-12-18T17:42:08;99813.75;;;15.30;100.00
20793;BME280;10556;-33.662;151.094;2022-12-18T17:47:12;99820.78;;;15.26;100.00
20793;BME280;10556;-33.662;151.094;2022-12-18T17:52:15;99827.94;;;15.21;100.00
20793;BME280;10556;-33.662;151.094;2022-12-18T17:57:17;99836.94;;;15.14;100.00
20793;BME280;10556;-33.662;151.094;2022-12-18T18:02:22;99835.50;;;15.10;100.00
20793;BME280;10556;-33.662;151.094;2022-12-18T18:07:24;99840.72;;;15.08;100.00
20793;BME280;10556;-33.662;151.094;2022-12-18T18:12:27;99838.22;;;15.07;100.00
20793;BME280;10556;-33.662;151.094;2022-12-18T18:17:31;99845.09;;;15.06;100.00
20793;BME280;10556;-33.662;151.094;2022-12-18T18:22:34;99850.22;;;15.06;100.00
20793;BME280;10556;-33.662;151.094;2022-12-18T18:27:36;99860.50;;;15.06;100.00
20793;BME280;10556;-33.662;151.094;2022-12-18T18:32:41;99864.91;;;15.04;100.00
20793;BME280;10556;-33.662;151.094;2022-12-18T18:37:43;99868.41;;;15.03;100.00
20793;BME280;10556;-33.662;151.094;2022-12-18T18:42:48;99866.84;;;15.01;100.00
20793;BME280;10556;-33.662;151.094;2022-12-18T18:47:53;99877.19;;;14.99;100.00
20793;BME280;10556;-33.662;151.094;2022-12-18T18:52:55;99884.16;;;14.97;100.00
20793;BME280;10556;-33.662;151.094;2022-12-18T18:57:58;99885.81;;;14.98;100.00
20793;BME280;10556;-33.662;151.094;2022-12-18T19:03:02;99904.53;;;15.00;100.00
20793;BME280;10556;-33.662;151.094;2022-12-18T19:08:05;99907.09;;;15.00;100.00
20793;BME280;10556;-33.662;151.094;2022-12-18T19:13:14;99900.31;;;14.99;100.00
20793;BME280;10556;-33.662;151.094;2022-12-18T19:18:19;99902.78;;;15.01;100.00
20793;BME280;10556;-33.662;151.094;2022-12-18T19:23:22;99912.13;;;15.02;100.00
20793;BME280;10556;-33.662;151.094;2022-12-18T19:28:24;99924.78;;;15.05;100.00
20793;BME280;10556;-33.662;151.094;2022-12-18T19:33:31;99933.13;;;15.08;100.00
20793;BME280;10556;-33.662;151.094;2022-12-18T19:38:34;99942.38;;;15.11;100.00
20793;BME280;10556;-33.662;151.094;2022-12-18T19:43:37;99945.59;;;15.14;100.00
20793;BME280;10556;-33.662;151.094;2022-12-18T19:48:42;99942.84;;;15.17;100.00
20793;BME280;10556;-33.662;151.094;2022-12-18T19:53:45;99946.78;;;15.23;100.00
20793;BME280;10556;-33.662;151.094;2022-12-18T19:58:48;99956.03;;;15.25;100.00
20793;BME280;10556;-33.662;151.094;2022-12-18T20:03:53;99959.16;;;15.31;100.00
20793;BME280;10556;-33.662;151.094;2022-12-18T20:08:57;99971.66;;;15.37;100.00
20793;BME280;10556;-33.662;151.094;2022-12-18T20:14:00;99984.97;;;15.43;100.00
20793;BME280;10556;-33.662;151.094;2022-12-18T20:19:04;99988.47;;;15.56;100.00
20793;BME280;10556;-33.662;151.094;2022-12-18T20:24:08;99993.81;;;15.67;100.00
20793;BME280;10556;-33.662;151.094;2022-12-18T20:29:11;100003.69;;;15.74;100.00
20793;BME280;10556;-33.662;151.094;2022-12-18T20:34:15;100010.84;;;15.83;100.00
20793;BME280;10556;-33.662;151.094;2022-12-18T20:39:18;100021.66;;;15.88;100.00
20793;BME280;10556;-33.662;151.094;2022-12-18T20:44:21;100023.16;;;15.92;100.00
20793;BME280;10556;-33.662;151.094;2022-12-18T20:49:26;100030.75;;;15.93;100.00
20793;BME280;10556;-33.662;151.094;2022-12-18T20:54:28;100035.06;;;15.93;100.00
20793;BME280;10556;-33.662;151.094;2022-12-18T20:59:31;100035.72;;;15.96;100.00
20793;BME280;10556;-33.662;151.094;2022-12-18T21:04:35;100051.78;;;16.00;100.00
20793;BME280;10556;-33.662;151.094;2022-12-18T21:09:38;100050.59;;;16.05;100.00
20793;BME280;10556;-33.662;151.094;2022-12-18T21:14:41;100054.63;;;16.09;100.00
20793;BME280;10556;-33.662;151.094;2022-12-18T21:19:45;100075.00;;;16.12;100.00
20793;BME280;10556;-33.662;151.094;2022-12-18T21:24:48;100069.41;;;16.20;100.00
20793;BME280;10556;-33.662;151.094;2022-12-18T21:29:50;100078.91;;;16.32;100.00
20793;BME280;10556;-33.662;151.094;2022-12-18T21:34:55;100074.56;;;16.47;100.00
20793;BME280;10556;-33.662;151.094;2022-12-18T21:39:57;100081.56;;;16.59;100.00
20793;BME280;10556;-33.662;151.094;2022-12-18T21:45:00;100078.50;;;16.67;100.00
20793;BME280;10556;-33.662;151.094;2022-12-18T21:50:05;100084.19;;;16.72;100.00
20793;BME280;10556;-33.662;151.094;2022-12-18T21:55:08;100078.44;;;16.81;100.00
20793;BME280;10556;-33.662;151.094;2022-12-18T22:00:12;100080.31;;;16.91;100.00
20793;BME280;10556;-33.662;151.094;2022-12-18T22:05:16;100082.94;;;17.04;100.00
20793;BME280;10556;-33.662;151.094;2022-12-18T22:10:19;100083.16;;;17.14;100.00
20793;BME280;10556;-33.662;151.094;2022-12-18T22:15:21;100075.25;;;17.17;100.00
20793;BME280;10556;-33.662;151.094;2022-12-18T22:20:26;100079.44;;;17.18;100.00
20793;BME280;10556;-33.662;151.094;2022-12-18T22:25:28;100076.78;;;17.19;100.00
20793;BME280;10556;-33.662;151.094;2022-12-18T22:30:31;100076.16;;;17.28;100.00
20793;BME280;10556;-33.662;151.094;2022-12-18T22:35:35;100078.66;;;17.42;100.00
20793;BME280;10556;-33.662;151.094;2022-12-18T22:40:38;100075.59;;;17.50;100.00
20793;BME280;10556;-33.662;151.094;2022-12-18T22:45:40;100074.03;;;17.60;100.00
20793;BME280;10556;-33.662;151.094;2022-12-18T22:50:45;100074.38;;;17.68;100.00
20793;BME280;10556;-33.662;151.094;2022-12-18T22:55:47;100076.22;;;17.66;100.00
20793;BME280;10556;-33.662;151.094;2022-12-18T23:00:50;100071.59;;;17.59;100.00
20793;BME280;10556;-33.662;151.094;2022-12-18T23:06:02;100066.44;;;17.59;100.00
20793;BME280;10556;-33.662;151.094;2022-12-18T23:11:05;100065.59;;;17.71;100.00
20793;BME280;10556;-33.662;151.094;2022-12-18T23:16:10;100060.00;;;17.90;100.00
20793;BME280;10556;-33.662;151.094;2022-12-18T23:21:17;100064.94;;;18.05;100.00
20793;BME280;10556;-33.662;151.094;2022-12-18T23:26:20;100063.28;;;18.17;100.00
20793;BME280;10556;-33.662;151.094;2022-12-18T23:31:24;100056.63;;;18.25;100.00
20793;BME280;10556;-33.662;151.094;2022-12-18T23:36:29;100059.50;;;18.34;100.00
20793;BME280;10556;-33.662;151.094;2022-12-18T23:41:32;100075.06;;;18.45;100.00
20793;BME280;10556;-33.662;151.094;2022-12-18T23:46:35;100066.47;;;18.57;100.00
20793;BME280;10556;-33.662;151.094;2022-12-18T23:51:40;100071.28;;;18.61;100.00
20793;BME280;10556;-33.662;151.094;2022-12-18T23:56:42;100075.78;;;18.70;100.00
